Terminal Aerodrome Forecast
Issued by NWS Memphis, TN

Current Version | Previous Version | Text Only | Print | Product List | Glossary On
Versions: 1 2 3 4 5 6 7 8 9 10 11 12 13 14
000
FTUS44 KMEG 231356 AAB
TAFMKL
TAF AMD
KMKL 231356Z 2314/2412 13003KT 2SM BR VCSH OVC006
     FM231600 11009KT 1 1/2SM RA BR OVC005
      TEMPO 2320/2323 TS OVC007CB
     FM240200 19012KT 4SM BR OVC010
     FM240600 20017G27KT P6SM BKN250=

USA.gov is the U.S. government's official web portal to all federal, state and local government web resources and services.